Terminal Aerodrome Forecast
Issued by NWS

Home | Current Version | Previous Version | Text Only | Print | Product List | Glossary On
Versions: 1 2 3 4 5 6 7 8 9 10 11 12 13
000
FTUS44 KSJT 030500
TAFBBD
TAF
KBBD 030520Z 0306/0406 14004KT P6SM SCT250
     FM031100 16005KT P6SM OVC015
     FM031500 17010G18KT P6SM SKC=

USA.gov is the U.S. government's official web portal to all federal, state and local government web resources and services.